createdAt,value
2019-02-23T00:00:13.406Z,9.30
2019-02-23T00:02:42.285Z,7.40
2019-02-23T00:05:11.213Z,5.37
2019-02-23T00:07:40.091Z,5.83
2019-02-23T00:10:09.005Z,8.30
2019-02-23T00:12:37.879Z,9.57
2019-02-23T00:15:07.198Z,7.17
2019-02-23T00:17:36.074Z,6.93
2019-02-23T00:20:07.400Z,8.30
2019-02-23T00:22:36.281Z,9.50
2019-02-23T00:25:05.205Z,10.90
2019-02-23T00:27:34.110Z,6.67
2019-02-23T00:30:03.131Z,8.53
2019-02-23T00:32:32.003Z,8.60
2019-02-23T00:35:00.920Z,8.63
2019-02-23T00:37:29.815Z,7.50
2019-02-23T00:39:58.730Z,9.30
2019-02-23T00:42:27.605Z,5.80
2019-02-23T00:44:56.535Z,7.13
2019-02-23T00:47:25.407Z,5.73
2019-02-23T00:49:54.321Z,9.53
2019-02-23T00:52:23.198Z,9.13
2019-02-23T00:54:52.124Z,10.17
2019-02-23T00:57:21.097Z,5.80
2019-02-23T00:59:50.029Z,8.87
2019-02-23T01:02:18.919Z,11.40
2019-02-23T01:04:47.838Z,8.63
2019-02-23T01:07:16.711Z,8.40
2019-02-23T01:09:45.585Z,11.20
2019-02-23T01:12:14.511Z,9.53
2019-02-23T01:14:43.809Z,9.43
2019-02-23T01:17:12.728Z,8.80
2019-02-23T01:19:47.812Z,10.27
2019-02-23T01:22:12.173Z,49.67
2019-02-23T01:24:41.063Z,20.27
2019-02-23T01:27:09.983Z,31.37
2019-02-23T01:29:38.858Z,28.47
2019-02-23T01:32:07.791Z,22.63
2019-02-23T01:34:36.664Z,16.77
2019-02-23T01:37:05.603Z,13.17
2019-02-23T01:39:34.608Z,27.47
2019-02-23T01:42:03.530Z,25.00
2019-02-23T01:44:32.406Z,12.40
2019-02-23T01:47:01.329Z,18.37
2019-02-23T01:49:30.308Z,18.27
2019-02-23T01:51:59.243Z,9.77
2019-02-23T01:54:28.116Z,6.10
2019-02-23T01:56:57.056Z,13.57
2019-02-23T01:59:25.943Z,8.27
2019-02-23T02:01:54.870Z,12.97
2019-02-23T02:04:23.762Z,8.57
2019-02-23T02:06:52.689Z,13.77
2019-02-23T02:09:21.864Z,7.27
2019-02-23T02:11:50.823Z,7.40
2019-02-23T02:14:19.761Z,9.17
2019-02-23T02:16:48.705Z,7.27
2019-02-23T02:19:17.580Z,7.53
2019-02-23T02:21:46.463Z,9.67
2019-02-23T02:24:15.387Z,7.27
2019-02-23T02:26:44.269Z,6.43
2019-02-23T02:29:13.183Z,6.93
2019-02-23T02:31:42.483Z,8.53
2019-02-23T02:34:13.504Z,8.70
2019-02-23T02:36:42.382Z,8.30
2019-02-23T02:39:12.893Z,6.30
2019-02-23T02:41:41.775Z,10.17
2019-02-23T02:44:10.702Z,7.27
2019-02-23T02:46:39.575Z,11.20
2019-02-23T02:49:08.691Z,7.70
2019-02-23T02:51:38.141Z,7.03
2019-02-23T02:54:07.058Z,5.43
2019-02-23T02:56:35.939Z,9.33
2019-02-23T02:59:04.862Z,8.97
2019-02-23T03:01:33.749Z,6.60
2019-02-23T03:04:02.670Z,6.73
2019-02-23T03:06:31.533Z,6.57
2019-02-23T03:09:00.466Z,5.97
2019-02-23T03:11:29.738Z,6.30
2019-02-23T03:13:58.656Z,9.27
2019-02-23T03:16:27.585Z,8.70
2019-02-23T03:18:56.626Z,5.57
2019-02-23T03:21:25.516Z,6.70
2019-02-23T03:23:54.461Z,7.97
2019-02-23T03:26:23.333Z,7.97
2019-02-23T03:28:52.256Z,8.03
2019-02-23T03:31:21.136Z,6.57
2019-02-23T03:33:50.185Z,7.40
2019-02-23T03:36:19.072Z,6.43
2019-02-23T03:38:47.961Z,7.73
2019-02-23T03:41:16.958Z,6.77
2019-02-23T03:43:45.816Z,7.13
2019-02-23T03:46:14.818Z,5.53
2019-02-23T03:48:43.715Z,7.70
2019-02-23T03:51:12.758Z,9.10
2019-02-23T03:53:41.638Z,7.00
2019-02-23T03:56:10.554Z,6.67
2019-02-23T03:58:39.433Z,6.50
2019-02-23T04:01:08.350Z,5.80
2019-02-23T04:03:37.228Z,5.20
2019-02-23T04:06:06.144Z,8.53
2019-02-23T04:08:35.023Z,5.83
2019-02-23T04:11:03.962Z,10.40
2019-02-23T04:13:32.838Z,6.73
2019-02-23T04:16:01.808Z,6.70
2019-02-23T04:18:30.744Z,6.70
2019-02-23T04:21:02.031Z,6.70
2019-02-23T04:23:30.217Z,7.03
2019-02-23T04:25:59.117Z,6.40
2019-02-23T04:28:27.996Z,6.97
2019-02-23T04:30:57.001Z,8.63
2019-02-23T04:33:25.892Z,6.07
2019-02-23T04:35:54.985Z,8.40
2019-02-23T04:38:23.977Z,5.47
2019-02-23T04:40:53.071Z,12.13
2019-02-23T04:43:22.064Z,8.30
2019-02-23T04:45:51.159Z,8.53
2019-02-23T04:48:20.150Z,6.83
2019-02-23T04:50:49.244Z,7.77
2019-02-23T04:53:18.126Z,8.00
2019-02-23T04:55:47.126Z,6.73
2019-02-23T04:58:16.016Z,6.37
2019-02-23T05:00:45.088Z,6.83
2019-02-23T05:03:14.207Z,6.23
2019-02-23T05:05:43.298Z,7.40
2019-02-23T05:08:12.188Z,6.63
2019-02-23T05:10:41.283Z,10.00
2019-02-23T05:13:10.379Z,8.27
2019-02-23T05:15:39.474Z,5.80
2019-02-23T05:18:08.568Z,8.03
2019-02-23T05:20:37.661Z,7.43
2019-02-23T05:23:06.863Z,7.07
2019-02-23T05:25:35.747Z,9.13
2019-02-23T05:28:04.740Z,7.70
2019-02-23T05:30:33.733Z,6.63
2019-02-23T05:33:02.730Z,8.63
2019-02-23T05:35:31.718Z,5.83
2019-02-23T05:38:00.764Z,7.67
2019-02-23T05:40:29.803Z,6.63
2019-02-23T05:43:01.216Z,7.97
2019-02-23T05:45:29.527Z,7.13
2019-02-23T05:47:58.520Z,6.43
2019-02-23T05:50:27.401Z,8.67
2019-02-23T05:52:56.401Z,8.87
2019-02-23T05:55:25.396Z,6.23
2019-02-23T05:57:54.489Z,7.53
2019-02-23T06:00:23.483Z,8.03
2019-02-23T06:02:52.474Z,7.07
2019-02-23T06:05:21.463Z,7.30
2019-02-23T06:07:50.457Z,6.40
2019-02-23T06:10:19.332Z,9.10
2019-02-23T06:12:48.440Z,9.10
2019-02-23T06:15:17.534Z,7.27
2019-02-23T06:17:46.529Z,11.10
2019-02-23T06:20:15.518Z,8.53
2019-02-23T06:22:46.682Z,9.70
2019-02-23T06:25:14.976Z,9.97
2019-02-23T06:27:43.899Z,8.97
2019-02-23T06:30:13.585Z,7.93
2019-02-23T06:32:42.501Z,11.90
2019-02-23T06:35:11.403Z,8.87
2019-02-23T06:37:40.319Z,8.40
2019-02-23T06:40:12.423Z,8.17
2019-02-23T06:42:41.331Z,7.87
2019-02-23T06:45:13.687Z,9.33
2019-02-23T06:47:42.597Z,10.03
2019-02-23T06:50:11.475Z,11.33
2019-02-23T06:52:40.392Z,9.80
2019-02-23T06:55:09.279Z,11.53
2019-02-23T06:57:38.165Z,12.53
2019-02-23T07:00:12.662Z,10.87
2019-02-23T07:02:41.539Z,10.43
2019-02-23T07:05:10.469Z,10.90
2019-02-23T07:07:39.363Z,11.63
2019-02-23T07:10:11.501Z,10.20
2019-02-23T07:12:40.390Z,10.70
2019-02-23T07:15:10.821Z,9.17
2019-02-23T07:17:39.711Z,10.90
2019-02-23T07:20:10.340Z,11.27
2019-02-23T07:22:39.221Z,10.30
2019-02-23T07:25:09.634Z,9.97
2019-02-23T07:27:38.513Z,12.47
2019-02-23T07:30:12.500Z,11.50
2019-02-23T07:32:41.389Z,12.90
2019-02-23T07:35:10.301Z,11.83
2019-02-23T07:37:39.176Z,13.77
2019-02-23T07:40:13.871Z,11.03
2019-02-23T07:42:42.782Z,11.43
2019-02-23T07:45:12.013Z,11.13
2019-02-23T07:47:40.892Z,11.93
2019-02-23T07:50:12.513Z,10.60
2019-02-23T07:52:41.392Z,11.50
2019-02-23T07:55:10.355Z,9.90
2019-02-23T07:57:39.234Z,13.30
2019-02-23T08:00:13.028Z,12.80
2019-02-23T08:02:41.879Z,12.90
2019-02-23T08:05:11.197Z,10.03
2019-02-23T08:07:40.188Z,10.57
2019-02-23T08:10:11.293Z,13.63
2019-02-23T08:12:40.162Z,11.03
2019-02-23T08:15:10.479Z,9.60
2019-02-23T08:17:39.358Z,11.97
2019-02-23T08:20:13.345Z,11.73
2019-02-23T08:22:42.242Z,11.97
2019-02-23T08:25:12.971Z,12.77
2019-02-23T08:27:41.857Z,10.07
2019-02-23T08:30:13.386Z,13.33
2019-02-23T08:32:42.275Z,11.50
2019-02-23T08:35:11.222Z,11.07
2019-02-23T08:37:40.101Z,11.00
2019-02-23T08:40:14.348Z,12.77
2019-02-23T08:42:43.216Z,10.80
2019-02-23T08:45:12.148Z,10.00
2019-02-23T08:47:41.016Z,9.83
2019-02-23T08:50:14.550Z,10.27
2019-02-23T08:52:49.275Z,10.43
2019-02-23T08:55:13.996Z,10.87
2019-02-23T08:57:42.868Z,10.83
2019-02-23T09:00:16.751Z,9.93
2019-02-23T09:02:45.630Z,11.20
2019-02-23T09:05:15.078Z,10.00
2019-02-23T09:07:43.957Z,10.77
2019-02-23T09:10:14.736Z,10.40
2019-02-23T09:12:43.626Z,10.40
2019-02-23T09:15:12.845Z,9.83
2019-02-23T09:17:41.727Z,12.33
2019-02-23T09:20:12.149Z,12.87
2019-02-23T09:22:41.026Z,10.83
2019-02-23T09:25:11.244Z,13.30
2019-02-23T09:27:40.140Z,14.60
2019-02-23T09:30:13.821Z,13.73
2019-02-23T09:32:42.691Z,16.70
2019-02-23T09:35:11.601Z,12.77
2019-02-23T09:37:40.478Z,13.47
2019-02-23T09:40:14.668Z,10.80
2019-02-23T09:42:43.545Z,12.43
2019-02-23T09:45:13.077Z,11.23
2019-02-23T09:47:41.951Z,10.93
2019-02-23T09:50:10.869Z,8.10
2019-02-23T09:52:39.774Z,9.57
2019-02-23T09:55:09.505Z,9.13
2019-02-23T09:57:38.387Z,10.20
2019-02-23T10:00:10.236Z,10.43
2019-02-23T10:02:39.153Z,9.17
2019-02-23T10:05:08.237Z,10.63
2019-02-23T10:07:37.153Z,10.83
2019-02-23T10:10:08.833Z,9.57
2019-02-23T10:12:37.754Z,10.07
2019-02-23T10:15:09.180Z,9.13
2019-02-23T10:17:38.099Z,10.07
2019-02-23T10:20:12.057Z,8.97
2019-02-23T10:22:40.983Z,10.30
2019-02-23T10:25:09.853Z,10.60
2019-02-23T10:27:38.878Z,11.10
2019-02-23T10:30:16.447Z,15.40
2019-02-23T10:32:45.884Z,12.47
2019-02-23T10:35:14.956Z,14.30
2019-02-23T10:37:43.886Z,16.07
2019-02-23T10:40:13.364Z,20.00
2019-02-23T10:42:42.337Z,18.10
2019-02-23T10:45:12.422Z,18.23
2019-02-23T10:47:41.343Z,18.33
2019-02-23T10:50:11.819Z,18.20
2019-02-23T10:52:40.742Z,20.47
2019-02-23T10:55:12.072Z,17.90
2019-02-23T10:57:41.102Z,17.80
2019-02-23T11:00:22.270Z,18.93
2019-02-23T11:02:51.533Z,19.77
2019-02-23T11:05:20.986Z,17.23
2019-02-23T11:07:49.934Z,16.10
2019-02-23T11:10:19.740Z,14.47
2019-02-23T11:12:48.734Z,13.73
2019-02-23T11:15:19.414Z,12.67
2019-02-23T11:17:48.365Z,17.13
2019-02-23T11:20:17.967Z,11.77
2019-02-23T11:22:46.926Z,13.20
2019-02-23T11:25:15.958Z,15.57
2019-02-23T11:27:44.940Z,12.67
2019-02-23T11:30:15.483Z,15.47
2019-02-23T11:32:44.429Z,15.63
2019-02-23T11:35:17.177Z,17.97
2019-02-23T11:37:45.477Z,19.90
2019-02-23T11:40:15.695Z,22.13
2019-02-23T11:42:44.829Z,24.77
2019-02-23T11:45:13.766Z,23.23
2019-02-23T11:47:42.795Z,23.23
2019-02-23T11:50:15.684Z,17.67
2019-02-23T11:52:44.661Z,19.20
2019-02-23T11:55:13.672Z,15.20
2019-02-23T11:57:42.625Z,16.47
2019-02-23T12:00:14.005Z,18.30
2019-02-23T12:02:51.986Z,20.77
2019-02-23T12:05:13.612Z,16.70
2019-02-23T12:07:42.581Z,13.93
2019-02-23T12:10:16.296Z,13.07
2019-02-23T12:12:45.277Z,11.40
2019-02-23T12:15:14.220Z,10.77
2019-02-23T12:17:43.179Z,9.87
2019-02-23T12:20:12.163Z,10.20
2019-02-23T12:22:41.074Z,9.30
2019-02-23T12:25:13.025Z,10.90
2019-02-23T12:27:40.993Z,7.43
2019-02-23T12:30:11.593Z,9.87
2019-02-23T12:32:40.539Z,9.97
2019-02-23T12:35:11.088Z,11.30
2019-02-23T12:37:40.041Z,11.60
2019-02-23T12:40:10.418Z,9.83
2019-02-23T12:42:39.399Z,9.20
2019-02-23T12:45:10.862Z,10.60
2019-02-23T12:47:39.802Z,9.40
2019-02-23T12:50:11.001Z,9.93
2019-02-23T12:52:40.051Z,9.23
2019-02-23T12:55:11.159Z,12.07
2019-02-23T12:57:40.063Z,8.60
2019-02-23T13:00:14.394Z,11.97
2019-02-23T13:02:43.281Z,9.80
2019-02-23T13:05:12.279Z,10.93
2019-02-23T13:07:41.185Z,12.40
2019-02-23T13:10:11.974Z,11.43
2019-02-23T13:13:05.006Z,12.23
2019-02-23T13:15:45.979Z,10.67
2019-02-23T13:18:29.841Z,12.30
2019-02-23T13:21:19.760Z,11.10
2019-02-23T13:24:09.790Z,13.93
2019-02-23T13:27:02.663Z,10.30
2019-02-23T13:29:46.385Z,12.83
2019-02-23T13:32:37.843Z,10.63
2019-02-23T13:35:32.261Z,11.57
2019-02-23T13:38:20.504Z,12.07
2019-02-23T13:41:21.005Z,10.70
2019-02-23T13:43:55.640Z,11.10
2019-02-23T13:46:51.633Z,10.23
2019-02-23T13:49:43.019Z,10.00
2019-02-23T13:52:30.196Z,10.77
2019-02-23T13:55:26.297Z,10.30
2019-02-23T13:58:03.872Z,12.07
2019-02-23T14:00:58.569Z,10.80
2019-02-23T14:03:53.521Z,11.40
2019-02-23T14:06:35.813Z,11.17
2019-02-23T14:09:40.914Z,12.27
2019-02-23T14:12:15.991Z,11.10
2019-02-23T14:15:08.532Z,12.23
2019-02-23T14:17:55.140Z,13.23
2019-02-23T14:20:36.033Z,11.43
2019-02-23T14:23:25.816Z,11.30
2019-02-23T14:26:17.276Z,12.60
2019-02-23T14:29:01.211Z,11.83
2019-02-23T14:31:33.220Z,14.33
2019-02-23T14:34:10.741Z,11.93
2019-02-23T14:36:51.191Z,13.17
2019-02-23T14:39:25.808Z,13.13
2019-02-23T14:41:57.816Z,16.17
2019-02-23T14:44:50.913Z,13.03
2019-02-23T14:47:34.960Z,15.03
2019-02-23T14:50:07.153Z,24.17
2019-02-23T14:52:41.858Z,29.23
2019-02-23T14:55:22.616Z,24.47
2019-02-23T14:58:22.261Z,17.73
2019-02-23T15:01:06.229Z,20.70
2019-02-23T15:04:05.511Z,18.73
2019-02-23T15:06:49.583Z,17.67
2019-02-23T15:09:48.145Z,15.90
2019-02-23T15:12:25.816Z,15.50
2019-02-23T15:15:03.417Z,13.67
2019-02-23T15:17:38.123Z,13.67
2019-02-23T15:20:40.376Z,13.77
2019-02-23T15:23:28.852Z,13.40
2019-02-23T15:26:31.111Z,14.33
2019-02-23T15:29:09.051Z,16.73
2019-02-23T15:31:59.123Z,15.60
2019-02-23T15:34:49.344Z,15.10
2019-02-23T15:37:23.979Z,15.80
2019-02-23T15:40:05.213Z,14.00
2019-02-23T15:42:37.672Z,13.83
2019-02-23T15:45:43.020Z,16.00
2019-02-23T15:48:30.555Z,14.30
2019-02-23T15:51:02.989Z,16.03
2019-02-23T15:53:32.114Z,15.97
2019-02-23T15:56:01.507Z,16.43
2019-02-23T15:58:30.600Z,16.67
2019-02-23T16:00:59.902Z,16.30
2019-02-23T16:03:29.071Z,16.73
2019-02-23T16:05:58.196Z,17.53
2019-02-23T16:08:27.407Z,18.43
2019-02-23T16:10:56.713Z,17.53
2019-02-23T16:13:25.908Z,16.90
2019-02-23T16:15:55.181Z,15.10
2019-02-23T16:18:24.396Z,17.60
2019-02-23T16:20:53.798Z,13.67
2019-02-23T16:23:34.640Z,14.70
2019-02-23T16:25:53.674Z,14.90
2019-02-23T16:28:22.813Z,15.03
2019-02-23T16:30:52.113Z,16.47
2019-02-23T16:33:21.330Z,13.93
2019-02-23T16:35:50.609Z,15.47
2019-02-23T16:38:19.776Z,15.73
2019-02-23T16:40:50.378Z,15.63
2019-02-23T16:43:19.622Z,15.20
2019-02-23T16:45:49.024Z,18.70
2019-02-23T16:48:18.232Z,18.40
2019-02-23T16:50:47.724Z,18.73
2019-02-23T16:53:16.851Z,15.10
2019-02-23T16:55:50.816Z,15.97
2019-02-23T16:58:16.754Z,15.27
2019-02-23T17:00:46.069Z,15.23
2019-02-23T17:03:15.151Z,15.03
2019-02-23T17:05:44.340Z,14.97
2019-02-23T17:08:13.355Z,15.90
2019-02-23T17:10:42.894Z,17.97
2019-02-23T17:13:11.828Z,15.27
2019-02-23T17:15:40.924Z,16.87
2019-02-23T17:18:10.053Z,13.33
2019-02-23T17:20:39.117Z,17.73
2019-02-23T17:23:08.232Z,16.97
2019-02-23T17:25:37.403Z,17.23
2019-02-23T17:28:07.230Z,17.37
2019-02-23T17:30:36.430Z,15.97
2019-02-23T17:33:05.526Z,15.37
2019-02-23T17:35:37.591Z,16.80
2019-02-23T17:38:15.721Z,15.17
2019-02-23T17:40:37.500Z,14.97
2019-02-23T17:43:10.197Z,18.33
2019-02-23T17:45:39.138Z,15.43
2019-02-23T17:48:08.284Z,17.23
2019-02-23T17:50:37.288Z,17.10
2019-02-23T17:53:08.194Z,15.67
2019-02-23T17:55:37.301Z,18.63
2019-02-23T17:58:06.485Z,16.57
2019-02-23T18:00:35.583Z,15.77
2019-02-23T18:03:04.798Z,21.33
2019-02-23T18:05:34.196Z,17.20
2019-02-23T18:08:03.506Z,20.57
2019-02-23T18:10:32.616Z,16.30
2019-02-23T18:13:01.873Z,15.70
2019-02-23T18:15:30.967Z,13.57
2019-02-23T18:18:00.175Z,16.97
2019-02-23T18:20:29.178Z,16.73
2019-02-23T18:22:58.242Z,14.10
2019-02-23T18:25:27.453Z,16.03
2019-02-23T18:27:56.542Z,17.27
2019-02-23T18:30:25.744Z,22.13
2019-02-23T18:32:58.867Z,17.23
2019-02-23T18:35:30.361Z,19.77
2019-02-23T18:38:02.212Z,18.43
2019-02-23T18:40:32.368Z,21.77
2019-02-23T18:43:02.657Z,19.80
2019-02-23T18:45:34.317Z,16.00
2019-02-23T18:48:03.419Z,20.00
2019-02-23T18:50:33.620Z,19.33
2019-02-23T18:53:06.814Z,17.57
2019-02-23T18:55:41.017Z,16.73
2019-02-23T18:58:06.860Z,18.40
2019-02-23T19:00:38.005Z,19.17
2019-02-23T19:03:11.851Z,16.43
2019-02-23T19:05:49.718Z,15.83
2019-02-23T19:08:13.283Z,16.13
2019-02-23T19:10:42.486Z,18.17
2019-02-23T19:13:13.250Z,14.93
2019-02-23T19:15:46.809Z,13.87
2019-02-23T19:18:18.889Z,16.17
2019-02-23T19:20:51.415Z,14.40
2019-02-23T19:23:24.934Z,13.77
2019-02-23T19:25:55.982Z,12.43
2019-02-23T19:28:28.560Z,12.60
2019-02-23T19:30:59.812Z,13.67
2019-02-23T19:33:31.185Z,12.23
2019-02-23T19:36:02.047Z,13.57
2019-02-23T19:38:31.401Z,14.17
2019-02-23T19:41:00.392Z,16.83
2019-02-23T19:43:29.279Z,14.17
2019-02-23T19:45:58.271Z,14.63
2019-02-23T19:48:27.270Z,15.37
2019-02-23T19:50:59.329Z,14.77
2019-02-23T19:53:29.730Z,17.07
2019-02-23T19:55:59.602Z,16.07
2019-02-23T19:58:29.482Z,15.00
2019-02-23T20:00:58.677Z,13.47
2019-02-23T20:03:29.420Z,14.37
2019-02-23T20:05:58.507Z,16.93
2019-02-23T20:08:27.597Z,13.17
2019-02-23T20:10:56.692Z,13.40
2019-02-23T20:13:25.984Z,16.07
2019-02-23T20:15:54.984Z,13.00
2019-02-23T20:18:24.078Z,14.20
2019-02-23T20:20:54.892Z,13.93
2019-02-23T20:23:24.110Z,13.23
2019-02-23T20:25:54.228Z,12.67
2019-02-23T20:28:29.153Z,12.70
2019-02-23T20:30:58.260Z,13.23
2019-02-23T20:33:27.351Z,13.97
2019-02-23T20:35:56.443Z,11.33
2019-02-23T20:38:26.933Z,14.93
2019-02-23T20:40:57.773Z,13.77
2019-02-23T20:43:28.023Z,14.03
2019-02-23T20:45:57.430Z,13.23
2019-02-23T20:48:27.753Z,14.43
2019-02-23T20:50:56.950Z,11.73
2019-02-23T20:53:26.046Z,12.97
2019-02-23T20:55:55.160Z,13.23
2019-02-23T20:58:24.759Z,13.87
2019-02-23T21:00:54.724Z,13.20
2019-02-23T21:03:43.820Z,11.00
2019-02-23T21:06:13.543Z,12.83
2019-02-23T21:08:42.687Z,13.17
2019-02-23T21:11:12.540Z,13.07
2019-02-23T21:13:43.411Z,13.10
2019-02-23T21:16:12.457Z,13.53
2019-02-23T21:18:41.553Z,12.93
2019-02-23T21:21:10.558Z,17.43
2019-02-23T21:23:39.655Z,14.70
2019-02-23T21:26:08.748Z,13.93
2019-02-23T21:28:37.844Z,13.23
2019-02-23T21:31:06.737Z,14.67
2019-02-23T21:33:35.826Z,17.27
2019-02-23T21:36:04.922Z,11.73
2019-02-23T21:38:34.015Z,17.17
2019-02-23T21:41:03.116Z,15.03
2019-02-23T21:43:32.206Z,13.67
2019-02-23T21:46:01.200Z,13.00
2019-02-23T21:48:30.295Z,11.77
2019-02-23T21:50:59.387Z,14.20
2019-02-23T21:53:28.377Z,13.57
2019-02-23T21:55:57.484Z,16.43
2019-02-23T21:58:26.650Z,15.37
2019-02-23T22:00:55.661Z,13.40
2019-02-23T22:03:24.757Z,14.10
2019-02-23T22:05:53.853Z,16.73
2019-02-23T22:08:23.356Z,15.23
2019-02-23T22:10:52.560Z,15.67
2019-02-23T22:13:21.850Z,16.40
2019-02-23T22:15:50.943Z,15.90
2019-02-23T22:18:19.936Z,17.77
2019-02-23T22:20:49.033Z,14.23
2019-02-23T22:23:18.135Z,14.77
2019-02-23T22:25:47.139Z,18.20
2019-02-23T22:28:16.209Z,14.40
2019-02-23T22:30:45.204Z,15.27
2019-02-23T22:33:14.195Z,12.10
2019-02-23T22:35:43.216Z,13.77
2019-02-23T22:38:12.386Z,14.73
2019-02-23T22:40:41.366Z,14.33
2019-02-23T22:43:10.370Z,14.70
2019-02-23T22:45:39.363Z,14.30
2019-02-23T22:48:08.453Z,21.77
2019-02-23T22:50:37.549Z,29.43
2019-02-23T22:53:06.541Z,24.97
2019-02-23T22:55:35.645Z,26.50
2019-02-23T22:58:04.730Z,21.47
2019-02-23T23:00:35.345Z,22.07
2019-02-23T23:03:04.242Z,17.67
2019-02-23T23:05:33.345Z,17.30
2019-02-23T23:08:02.344Z,14.87
2019-02-23T23:10:31.330Z,13.57
2019-02-23T23:13:00.317Z,19.77
2019-02-23T23:15:29.427Z,16.00
2019-02-23T23:17:58.510Z,14.77
2019-02-23T23:20:28.311Z,20.63
2019-02-23T23:22:57.418Z,37.23
2019-02-23T23:25:26.409Z,31.17
2019-02-23T23:27:55.502Z,23.57
2019-02-23T23:30:24.494Z,17.57
2019-02-23T23:32:53.483Z,16.40
2019-02-23T23:35:22.583Z,16.57
2019-02-23T23:37:51.681Z,16.50
2019-02-23T23:40:20.770Z,17.23
2019-02-23T23:42:57.793Z,18.87
2019-02-23T23:45:20.393Z,19.10
2019-02-23T23:47:49.490Z,19.40
2019-02-23T23:50:18.584Z,17.73
2019-02-23T23:52:47.682Z,16.03
2019-02-23T23:55:16.770Z,16.20
2019-02-23T23:57:45.660Z,30.43
